sensor_id;sensor_type;location;lat;lon;timestamp;temperature;humidity
4964;DHT22;2497;47.410;9.740;2023-04-05T00:00:00;1.00;99.90
4964;DHT22;2497;47.410;9.740;2023-04-05T00:02:33;1.10;99.90
4964;DHT22;2497;47.410;9.740;2023-04-05T00:05:02;1.10;99.90
4964;DHT22;2497;47.410;9.740;2023-04-05T00:07:31;1.20;99.90
4964;DHT22;2497;47.410;9.740;2023-04-05T00:10:00;1.20;99.90
4964;DHT22;2497;47.410;9.740;2023-04-05T00:12:27;1.20;99.90
4964;DHT22;2497;47.410;9.740;2023-04-05T00:14:54;1.20;99.90
4964;DHT22;2497;47.410;9.740;2023-04-05T00:17:21;1.20;99.90
4964;DHT22;2497;47.410;9.740;2023-04-05T00:19:48;1.20;99.90
4964;DHT22;2497;47.410;9.740;2023-04-05T00:22:21;1.20;99.90
4964;DHT22;2497;47.410;9.740;2023-04-05T00:24:52;1.20;99.90
4964;DHT22;2497;47.410;9.740;2023-04-05T00:27:19;1.10;99.90
4964;DHT22;2497;47.410;9.740;2023-04-05T00:29:46;1.20;99.90
4964;DHT22;2497;47.410;9.740;2023-04-05T00:32:14;1.10;99.90
4964;DHT22;2497;47.410;9.740;2023-04-05T00:34:41;1.20;99.90
4964;DHT22;2497;47.410;9.740;2023-04-05T00:37:10;1.10;99.90
4964;DHT22;2497;47.410;9.740;2023-04-05T00:39:37;1.00;99.90
4964;DHT22;2497;47.410;9.740;2023-04-05T00:42:06;1.00;99.90
4964;DHT22;2497;47.410;9.740;2023-04-05T00:44:33;1.00;99.90
4964;DHT22;2497;47.410;9.740;2023-04-05T00:47:01;1.00;99.90
4964;DHT22;2497;47.410;9.740;2023-04-05T00:49:28;1.00;99.90
4964;DHT22;2497;47.410;9.740;2023-04-05T00:51:56;1.10;99.90
4964;DHT22;2497;47.410;9.740;2023-04-05T00:54:24;1.00;99.90
4964;DHT22;2497;47.410;9.740;2023-04-05T00:56:54;1.00;99.90
4964;DHT22;2497;47.410;9.740;2023-04-05T00:59:23;1.00;99.90
4964;DHT22;2497;47.410;9.740;2023-04-05T01:01:55;1.00;99.90
4964;DHT22;2497;47.410;9.740;2023-04-05T01:04:27;1.00;99.90
4964;DHT22;2497;47.410;9.740;2023-04-05T01:07:02;1.00;99.90
4964;DHT22;2497;47.410;9.740;2023-04-05T01:09:36;0.90;99.90
4964;DHT22;2497;47.410;9.740;2023-04-05T01:12:08;0.90;99.90
4964;DHT22;2497;47.410;9.740;2023-04-05T01:14:52;0.90;99.90
4964;DHT22;2497;47.410;9.740;2023-04-05T01:17:21;0.80;99.90
4964;DHT22;2497;47.410;9.740;2023-04-05T01:19:49;0.80;99.90
4964;DHT22;2497;47.410;9.740;2023-04-05T01:25:40;0.90;99.90
4964;DHT22;2497;47.410;9.740;2023-04-05T01:28:30;0.80;99.90
4964;DHT22;2497;47.410;9.740;2023-04-05T01:31:07;0.90;99.90
4964;DHT22;2497;47.410;9.740;2023-04-05T01:33:43;0.90;99.90
4964;DHT22;2497;47.410;9.740;2023-04-05T01:36:26;0.80;99.90
4964;DHT22;2497;47.410;9.740;2023-04-05T01:38:57;0.70;99.90
4964;DHT22;2497;47.410;9.740;2023-04-05T01:41:25;0.70;99.90
4964;DHT22;2497;47.410;9.740;2023-04-05T01:43:52;0.60;99.90
4964;DHT22;2497;47.410;9.740;2023-04-05T01:46:21;0.60;99.90
4964;DHT22;2497;47.410;9.740;2023-04-05T01:48:48;0.50;99.90
4964;DHT22;2497;47.410;9.740;2023-04-05T01:51:15;0.50;99.90
4964;DHT22;2497;47.410;9.740;2023-04-05T01:53:42;0.50;99.90
4964;DHT22;2497;47.410;9.740;2023-04-05T01:56:24;0.50;99.90
4964;DHT22;2497;47.410;9.740;2023-04-05T01:58:52;0.50;99.90
4964;DHT22;2497;47.410;9.740;2023-04-05T02:01:20;0.50;99.90
4964;DHT22;2497;47.410;9.740;2023-04-05T02:03:47;0.50;99.90
4964;DHT22;2497;47.410;9.740;2023-04-05T02:06:15;0.50;99.90
4964;DHT22;2497;47.410;9.740;2023-04-05T02:08:42;0.50;99.90
4964;DHT22;2497;47.410;9.740;2023-04-05T02:11:09;0.60;99.90
4964;DHT22;2497;47.410;9.740;2023-04-05T02:13:36;0.60;99.90
4964;DHT22;2497;47.410;9.740;2023-04-05T02:16:04;0.50;99.90
4964;DHT22;2497;47.410;9.740;2023-04-05T02:18:32;0.60;99.90
4964;DHT22;2497;47.410;9.740;2023-04-05T02:21:01;0.50;99.90
4964;DHT22;2497;47.410;9.740;2023-04-05T02:23:29;0.60;99.90
4964;DHT22;2497;47.410;9.740;2023-04-05T02:25:57;0.60;99.90
4964;DHT22;2497;47.410;9.740;2023-04-05T02:28:25;0.60;99.90
4964;DHT22;2497;47.410;9.740;2023-04-05T02:30:52;0.60;99.90
4964;DHT22;2497;47.410;9.740;2023-04-05T02:33:20;0.60;99.90
4964;DHT22;2497;47.410;9.740;2023-04-05T02:35:51;0.70;99.90
4964;DHT22;2497;47.410;9.740;2023-04-05T02:38:18;0.70;99.90
4964;DHT22;2497;47.410;9.740;2023-04-05T02:40:46;0.60;99.90
4964;DHT22;2497;47.410;9.740;2023-04-05T02:43:14;0.50;99.90
4964;DHT22;2497;47.410;9.740;2023-04-05T02:45:41;0.50;99.90
4964;DHT22;2497;47.410;9.740;2023-04-05T02:48:08;0.50;99.90
4964;DHT22;2497;47.410;9.740;2023-04-05T02:50:35;0.60;99.90
4964;DHT22;2497;47.410;9.740;2023-04-05T02:53:04;0.50;99.90
4964;DHT22;2497;47.410;9.740;2023-04-05T02:55:31;0.50;99.90
4964;DHT22;2497;47.410;9.740;2023-04-05T02:57:59;0.40;99.90
4964;DHT22;2497;47.410;9.740;2023-04-05T03:00:26;0.40;99.90
4964;DHT22;2497;47.410;9.740;2023-04-05T03:02:54;0.40;99.90
4964;DHT22;2497;47.410;9.740;2023-04-05T03:05:21;0.40;99.90
4964;DHT22;2497;47.410;9.740;2023-04-05T03:07:49;0.40;99.90
4964;DHT22;2497;47.410;9.740;2023-04-05T03:10:19;0.40;99.90
4964;DHT22;2497;47.410;9.740;2023-04-05T03:12:47;0.40;99.90
4964;DHT22;2497;47.410;9.740;2023-04-05T03:15:16;0.30;99.90
4964;DHT22;2497;47.410;9.740;2023-04-05T03:17:43;0.30;99.90
4964;DHT22;2497;47.410;9.740;2023-04-05T03:20:11;0.20;99.90
4964;DHT22;2497;47.410;9.740;2023-04-05T03:22:39;0.00;99.90
4964;DHT22;2497;47.410;9.740;2023-04-05T03:25:07;0.00;99.90
4964;DHT22;2497;47.410;9.740;2023-04-05T03:27:36;0.10;99.90
4964;DHT22;2497;47.410;9.740;2023-04-05T03:30:04;0.00;99.90
4964;DHT22;2497;47.410;9.740;2023-04-05T03:32:31;-0.10;99.90
4964;DHT22;2497;47.410;9.740;2023-04-05T03:34:59;-0.10;99.90
4964;DHT22;2497;47.410;9.740;2023-04-05T03:37:26;-0.10;99.90
4964;DHT22;2497;47.410;9.740;2023-04-05T03:39:53;-0.10;99.90
4964;DHT22;2497;47.410;9.740;2023-04-05T03:42:20;-0.20;99.90
4964;DHT22;2497;47.410;9.740;2023-04-05T03:44:51;-0.30;99.90
4964;DHT22;2497;47.410;9.740;2023-04-05T03:47:18;-0.30;99.90
4964;DHT22;2497;47.410;9.740;2023-04-05T03:49:48;-0.40;99.90
4964;DHT22;2497;47.410;9.740;2023-04-05T03:52:16;-0.50;99.90
4964;DHT22;2497;47.410;9.740;2023-04-05T03:54:45;-0.50;99.90
4964;DHT22;2497;47.410;9.740;2023-04-05T03:57:15;-0.60;99.90
4964;DHT22;2497;47.410;9.740;2023-04-05T03:59:49;-0.60;99.90
4964;DHT22;2497;47.410;9.740;2023-04-05T04:02:16;-0.60;99.90
4964;DHT22;2497;47.410;9.740;2023-04-05T04:04:43;-0.60;99.90
4964;DHT22;2497;47.410;9.740;2023-04-05T04:07:12;-0.60;99.90
4964;DHT22;2497;47.410;9.740;2023-04-05T04:09:39;-0.60;99.90
4964;DHT22;2497;47.410;9.740;2023-04-05T04:12:06;-0.60;99.90
4964;DHT22;2497;47.410;9.740;2023-04-05T04:14:34;-0.70;99.90
4964;DHT22;2497;47.410;9.740;2023-04-05T04:17:26;-0.80;99.90
4964;DHT22;2497;47.410;9.740;2023-04-05T04:19:54;-0.80;99.90
4964;DHT22;2497;47.410;9.740;2023-04-05T04:22:21;-0.80;99.90
4964;DHT22;2497;47.410;9.740;2023-04-05T04:24:51;-0.80;99.90
4964;DHT22;2497;47.410;9.740;2023-04-05T04:27:20;-0.80;99.90
4964;DHT22;2497;47.410;9.740;2023-04-05T04:29:47;-0.70;99.90
4964;DHT22;2497;47.410;9.740;2023-04-05T04:32:14;-0.70;99.90
4964;DHT22;2497;47.410;9.740;2023-04-05T04:34:48;-0.60;99.90
4964;DHT22;2497;47.410;9.740;2023-04-05T04:37:19;-0.60;99.90
4964;DHT22;2497;47.410;9.740;2023-04-05T04:39:47;-0.60;99.90
4964;DHT22;2497;47.410;9.740;2023-04-05T04:42:19;-0.60;99.90
4964;DHT22;2497;47.410;9.740;2023-04-05T04:44:50;-0.60;99.90
4964;DHT22;2497;47.410;9.740;2023-04-05T04:47:19;-0.60;99.90
4964;DHT22;2497;47.410;9.740;2023-04-05T04:49:47;-0.70;99.90
4964;DHT22;2497;47.410;9.740;2023-04-05T04:52:15;-0.70;99.90
4964;DHT22;2497;47.410;9.740;2023-04-05T04:54:42;-0.80;99.90
4964;DHT22;2497;47.410;9.740;2023-04-05T04:57:11;-0.80;99.90
4964;DHT22;2497;47.410;9.740;2023-04-05T04:59:39;-0.90;99.90
4964;DHT22;2497;47.410;9.740;2023-04-05T05:02:06;-0.80;99.90
4964;DHT22;2497;47.410;9.740;2023-04-05T05:04:33;-0.80;99.90
4964;DHT22;2497;47.410;9.740;2023-04-05T05:07:02;-0.70;99.90
4964;DHT22;2497;47.410;9.740;2023-04-05T05:09:29;-0.70;99.90
4964;DHT22;2497;47.410;9.740;2023-04-05T05:11:56;-0.70;99.90
4964;DHT22;2497;47.410;9.740;2023-04-05T05:14:25;-0.50;99.90
4964;DHT22;2497;47.410;9.740;2023-04-05T05:16:53;-0.50;99.90
4964;DHT22;2497;47.410;9.740;2023-04-05T05:19:23;-0.50;99.90
4964;DHT22;2497;47.410;9.740;2023-04-05T05:21:51;-0.50;99.90
4964;DHT22;2497;47.410;9.740;2023-04-05T05:24:20;-0.60;99.90
4964;DHT22;2497;47.410;9.740;2023-04-05T05:26:47;-0.60;99.90
4964;DHT22;2497;47.410;9.740;2023-04-05T05:29:14;-0.60;99.90
4964;DHT22;2497;47.410;9.740;2023-04-05T05:31:41;-0.60;99.90
4964;DHT22;2497;47.410;9.740;2023-04-05T05:34:08;-0.60;99.90
4964;DHT22;2497;47.410;9.740;2023-04-05T05:36:35;-0.60;99.90
4964;DHT22;2497;47.410;9.740;2023-04-05T05:39:03;-0.60;99.90
4964;DHT22;2497;47.410;9.740;2023-04-05T05:41:32;-0.60;99.90
4964;DHT22;2497;47.410;9.740;2023-04-05T05:44:00;-0.60;99.90
4964;DHT22;2497;47.410;9.740;2023-04-05T05:46:27;-0.60;99.90
4964;DHT22;2497;47.410;9.740;2023-04-05T05:48:54;-0.50;99.90
4964;DHT22;2497;47.410;9.740;2023-04-05T05:51:21;-0.40;99.90
4964;DHT22;2497;47.410;9.740;2023-04-05T05:53:48;-0.30;99.90
4964;DHT22;2497;47.410;9.740;2023-04-05T05:56:15;-0.30;99.90
4964;DHT22;2497;47.410;9.740;2023-04-05T05:58:44;-0.30;99.90
4964;DHT22;2497;47.410;9.740;2023-04-05T06:01:13;-0.30;99.90
4964;DHT22;2497;47.410;9.740;2023-04-05T06:03:40;-0.20;99.90
4964;DHT22;2497;47.410;9.740;2023-04-05T06:06:07;-0.10;99.90
4964;DHT22;2497;47.410;9.740;2023-04-05T06:08:37;0.00;99.90
4964;DHT22;2497;47.410;9.740;2023-04-05T06:11:04;0.10;99.90
4964;DHT22;2497;47.410;9.740;2023-04-05T06:13:31;0.30;99.90
4964;DHT22;2497;47.410;9.740;2023-04-05T06:16:01;0.40;99.90
4964;DHT22;2497;47.410;9.740;2023-04-05T06:18:28;0.50;99.90
4964;DHT22;2497;47.410;9.740;2023-04-05T06:20:55;0.70;99.90
4964;DHT22;2497;47.410;9.740;2023-04-05T06:23:23;0.80;99.90
4964;DHT22;2497;47.410;9.740;2023-04-05T06:25:50;1.00;99.90
4964;DHT22;2497;47.410;9.740;2023-04-05T06:28:17;1.00;99.90
4964;DHT22;2497;47.410;9.740;2023-04-05T06:30:46;1.20;99.90
4964;DHT22;2497;47.410;9.740;2023-04-05T06:33:19;1.30;99.90
4964;DHT22;2497;47.410;9.740;2023-04-05T06:35:46;1.40;99.90
4964;DHT22;2497;47.410;9.740;2023-04-05T06:38:13;1.60;99.90
4964;DHT22;2497;47.410;9.740;2023-04-05T06:40:43;1.80;99.90
4964;DHT22;2497;47.410;9.740;2023-04-05T06:43:10;1.80;99.90
4964;DHT22;2497;47.410;9.740;2023-04-05T06:45:37;2.00;99.90
4964;DHT22;2497;47.410;9.740;2023-04-05T06:48:04;2.10;99.90
4964;DHT22;2497;47.410;9.740;2023-04-05T06:50:33;2.20;99.90
4964;DHT22;2497;47.410;9.740;2023-04-05T06:53:02;2.80;99.90
4964;DHT22;2497;47.410;9.740;2023-04-05T06:55:32;3.00;99.90
4964;DHT22;2497;47.410;9.740;2023-04-05T06:58:00;3.00;99.90
4964;DHT22;2497;47.410;9.740;2023-04-05T07:00:27;3.30;99.90
4964;DHT22;2497;47.410;9.740;2023-04-05T07:02:54;3.40;99.90
4964;DHT22;2497;47.410;9.740;2023-04-05T07:05:21;3.40;99.90
4964;DHT22;2497;47.410;9.740;2023-04-05T07:07:49;4.40;99.90
4964;DHT22;2497;47.410;9.740;2023-04-05T07:10:18;5.40;99.90
4964;DHT22;2497;47.410;9.740;2023-04-05T07:12:45;6.40;99.90
4964;DHT22;2497;47.410;9.740;2023-04-05T07:15:12;7.00;99.90
4964;DHT22;2497;47.410;9.740;2023-04-05T07:17:39;7.30;99.90
4964;DHT22;2497;47.410;9.740;2023-04-05T07:20:07;6.00;99.90
4964;DHT22;2497;47.410;9.740;2023-04-05T07:22:34;6.90;99.90
4964;DHT22;2497;47.410;9.740;2023-04-05T07:25:03;6.40;99.90
4964;DHT22;2497;47.410;9.740;2023-04-05T07:27:33;6.40;99.90
4964;DHT22;2497;47.410;9.740;2023-04-05T07:30:01;7.60;99.90
4964;DHT22;2497;47.410;9.740;2023-04-05T07:32:28;7.70;99.90
4964;DHT22;2497;47.410;9.740;2023-04-05T07:34:55;8.40;99.90
4964;DHT22;2497;47.410;9.740;2023-04-05T07:37:22;8.50;99.90
4964;DHT22;2497;47.410;9.740;2023-04-05T07:39:50;7.80;99.90
4964;DHT22;2497;47.410;9.740;2023-04-05T07:42:19;7.20;99.90
4964;DHT22;2497;47.410;9.740;2023-04-05T07:44:46;6.70;99.90
4964;DHT22;2497;47.410;9.740;2023-04-05T07:47:13;7.40;99.90
4964;DHT22;2497;47.410;9.740;2023-04-05T07:49:40;7.00;99.90
4964;DHT22;2497;47.410;9.740;2023-04-05T07:52:07;6.80;99.90
4964;DHT22;2497;47.410;9.740;2023-04-05T07:54:35;7.20;99.90
4964;DHT22;2497;47.410;9.740;2023-04-05T07:57:06;6.60;99.90
4964;DHT22;2497;47.410;9.740;2023-04-05T07:59:34;6.30;99.90
4964;DHT22;2497;47.410;9.740;2023-04-05T08:02:02;7.60;99.90
4964;DHT22;2497;47.410;9.740;2023-04-05T08:04:29;8.00;99.90
4964;DHT22;2497;47.410;9.740;2023-04-05T08:06:56;7.20;99.90
4964;DHT22;2497;47.410;9.740;2023-04-05T08:09:23;7.00;99.90
4964;DHT22;2497;47.410;9.740;2023-04-05T08:11:50;6.40;99.90
4964;DHT22;2497;47.410;9.740;2023-04-05T08:14:17;6.00;99.90
4964;DHT22;2497;47.410;9.740;2023-04-05T08:16:46;6.40;99.90
4964;DHT22;2497;47.410;9.740;2023-04-05T08:19:15;6.30;99.90
4964;DHT22;2497;47.410;9.740;2023-04-05T08:21:42;6.50;99.90
4964;DHT22;2497;47.410;9.740;2023-04-05T08:24:09;7.80;99.90
4964;DHT22;2497;47.410;9.740;2023-04-05T08:26:36;8.50;99.90
4964;DHT22;2497;47.410;9.740;2023-04-05T08:29:04;8.50;99.90
4964;DHT22;2497;47.410;9.740;2023-04-05T08:31:31;8.60;99.90
4964;DHT22;2497;47.410;9.740;2023-04-05T08:34:00;8.50;99.90
4964;DHT22;2497;47.410;9.740;2023-04-05T08:36:27;7.60;99.90
4964;DHT22;2497;47.410;9.740;2023-04-05T08:38:54;7.30;99.90
4964;DHT22;2497;47.410;9.740;2023-04-05T08:41:23;7.00;99.90
4964;DHT22;2497;47.410;9.740;2023-04-05T08:43:55;7.20;99.90
4964;DHT22;2497;47.410;9.740;2023-04-05T08:46:24;7.00;99.90
4964;DHT22;2497;47.410;9.740;2023-04-05T08:48:51;6.80;99.90
4964;DHT22;2497;47.410;9.740;2023-04-05T08:51:22;6.60;99.90
4964;DHT22;2497;47.410;9.740;2023-04-05T08:53:49;6.70;99.90
4964;DHT22;2497;47.410;9.740;2023-04-05T08:56:19;7.60;99.90
4964;DHT22;2497;47.410;9.740;2023-04-05T08:58:51;7.50;99.90
4964;DHT22;2497;47.410;9.740;2023-04-05T09:01:19;8.80;99.90
4964;DHT22;2497;47.410;9.740;2023-04-05T09:03:49;8.90;99.90
4964;DHT22;2497;47.410;9.740;2023-04-05T09:06:18;8.60;99.90
4964;DHT22;2497;47.410;9.740;2023-04-05T09:08:48;7.80;99.90
4964;DHT22;2497;47.410;9.740;2023-04-05T09:11:16;7.90;99.90
4964;DHT22;2497;47.410;9.740;2023-04-05T09:13:43;7.70;99.90
4964;DHT22;2497;47.410;9.740;2023-04-05T09:16:10;7.40;99.90
4964;DHT22;2497;47.410;9.740;2023-04-05T09:18:39;8.40;99.90
4964;DHT22;2497;47.410;9.740;2023-04-05T09:21:08;9.40;99.90
4964;DHT22;2497;47.410;9.740;2023-04-05T09:23:36;9.30;99.90
4964;DHT22;2497;47.410;9.740;2023-04-05T09:26:17;8.80;99.90
4964;DHT22;2497;47.410;9.740;2023-04-05T09:28:46;8.20;99.90
4964;DHT22;2497;47.410;9.740;2023-04-05T09:31:28;8.40;99.90
4964;DHT22;2497;47.410;9.740;2023-04-05T09:33:57;8.00;99.90
4964;DHT22;2497;47.410;9.740;2023-04-05T09:36:27;8.30;99.90
4964;DHT22;2497;47.410;9.740;2023-04-05T09:39:04;9.00;99.90
4964;DHT22;2497;47.410;9.740;2023-04-05T09:41:34;9.30;99.90
4964;DHT22;2497;47.410;9.740;2023-04-05T09:44:02;9.00;99.90
4964;DHT22;2497;47.410;9.740;2023-04-05T09:46:30;8.80;99.90
4964;DHT22;2497;47.410;9.740;2023-04-05T09:48:59;9.10;99.90
4964;DHT22;2497;47.410;9.740;2023-04-05T09:51:32;8.90;99.90
4964;DHT22;2497;47.410;9.740;2023-04-05T09:54:01;8.80;99.90
4964;DHT22;2497;47.410;9.740;2023-04-05T09:56:32;8.60;99.90
4964;DHT22;2497;47.410;9.740;2023-04-05T09:59:01;8.50;99.90
4964;DHT22;2497;47.410;9.740;2023-04-05T10:01:31;8.80;99.90
4964;DHT22;2497;47.410;9.740;2023-04-05T10:03:58;9.00;99.90
4964;DHT22;2497;47.410;9.740;2023-04-05T10:06:35;9.60;99.90
4964;DHT22;2497;47.410;9.740;2023-04-05T10:09:03;10.60;99.90
4964;DHT22;2497;47.410;9.740;2023-04-05T10:11:31;11.20;99.90
4964;DHT22;2497;47.410;9.740;2023-04-05T10:14:02;11.70;99.90
4964;DHT22;2497;47.410;9.740;2023-04-05T10:16:32;11.10;99.90
4964;DHT22;2497;47.410;9.740;2023-04-05T10:19:04;10.60;99.90
4964;DHT22;2497;47.410;9.740;2023-04-05T10:21:35;10.90;99.90
4964;DHT22;2497;47.410;9.740;2023-04-05T10:24:09;10.20;99.90
4964;DHT22;2497;47.410;9.740;2023-04-05T10:26:51;10.30;99.90
4964;DHT22;2497;47.410;9.740;2023-04-05T10:29:27;10.50;99.90
4964;DHT22;2497;47.410;9.740;2023-04-05T10:32:01;10.40;99.90
4964;DHT22;2497;47.410;9.740;2023-04-05T10:34:41;10.80;99.90
4964;DHT22;2497;47.410;9.740;2023-04-05T10:37:12;11.10;99.90
4964;DHT22;2497;47.410;9.740;2023-04-05T10:39:46;10.20;99.90
4964;DHT22;2497;47.410;9.740;2023-04-05T10:42:18;10.30;99.90
4964;DHT22;2497;47.410;9.740;2023-04-05T10:44:51;10.40;99.90
4964;DHT22;2497;47.410;9.740;2023-04-05T10:47:22;10.90;99.90
4964;DHT22;2497;47.410;9.740;2023-04-05T10:49:56;10.40;99.90
4964;DHT22;2497;47.410;9.740;2023-04-05T10:52:26;10.90;99.90
4964;DHT22;2497;47.410;9.740;2023-04-05T10:54:55;11.40;99.90
4964;DHT22;2497;47.410;9.740;2023-04-05T10:57:25;11.20;99.90
4964;DHT22;2497;47.410;9.740;2023-04-05T10:59:57;11.50;99.90
4964;DHT22;2497;47.410;9.740;2023-04-05T11:02:48;11.80;99.90
4964;DHT22;2497;47.410;9.740;2023-04-05T11:05:29;12.40;99.90
4964;DHT22;2497;47.410;9.740;2023-04-05T11:08:11;12.80;99.90
4964;DHT22;2497;47.410;9.740;2023-04-05T11:10:40;12.50;99.90
4964;DHT22;2497;47.410;9.740;2023-04-05T11:13:08;13.10;99.90
4964;DHT22;2497;47.410;9.740;2023-04-05T11:15:38;13.30;99.90
4964;DHT22;2497;47.410;9.740;2023-04-05T11:18:07;12.80;99.90
4964;DHT22;2497;47.410;9.740;2023-04-05T11:20:45;12.80;99.90
4964;DHT22;2497;47.410;9.740;2023-04-05T11:23:14;13.50;99.90
4964;DHT22;2497;47.410;9.740;2023-04-05T11:25:46;14.70;99.90
4964;DHT22;2497;47.410;9.740;2023-04-05T11:28:22;15.50;99.90
4964;DHT22;2497;47.410;9.740;2023-04-05T11:30:52;15.90;99.90
4964;DHT22;2497;47.410;9.740;2023-04-05T11:33:40;15.30;99.90
4964;DHT22;2497;47.410;9.740;2023-04-05T11:36:35;15.10;99.90
4964;DHT22;2497;47.410;9.740;2023-04-05T11:39:25;15.10;99.90
4964;DHT22;2497;47.410;9.740;2023-04-05T11:41:56;15.50;99.90
4964;DHT22;2497;47.410;9.740;2023-04-05T11:44:40;16.90;99.90
4964;DHT22;2497;47.410;9.740;2023-04-05T11:47:09;17.40;99.90
4964;DHT22;2497;47.410;9.740;2023-04-05T11:49:37;17.80;99.90
4964;DHT22;2497;47.410;9.740;2023-04-05T11:52:13;17.70;99.90
4964;DHT22;2497;47.410;9.740;2023-04-05T11:54:42;16.90;99.90
4964;DHT22;2497;47.410;9.740;2023-04-05T11:57:18;16.20;99.90
4964;DHT22;2497;47.410;9.740;2023-04-05T11:59:46;16.40;99.90
4964;DHT22;2497;47.410;9.740;2023-04-05T12:02:19;16.50;99.90
4964;DHT22;2497;47.410;9.740;2023-04-05T12:04:53;17.90;99.90
4964;DHT22;2497;47.410;9.740;2023-04-05T12:07:25;17.80;99.90
4964;DHT22;2497;47.410;9.740;2023-04-05T12:09:58;18.80;99.90
4964;DHT22;2497;47.410;9.740;2023-04-05T12:12:25;19.80;99.90
4964;DHT22;2497;47.410;9.740;2023-04-05T12:14:58;19.90;99.90
4964;DHT22;2497;47.410;9.740;2023-04-05T12:17:39;19.30;99.90
4964;DHT22;2497;47.410;9.740;2023-04-05T12:20:11;19.30;99.90
4964;DHT22;2497;47.410;9.740;2023-04-05T12:22:41;18.80;99.90
4964;DHT22;2497;47.410;9.740;2023-04-05T12:25:14;19.50;99.90
4964;DHT22;2497;47.410;9.740;2023-04-05T12:27:42;20.90;99.90
4964;DHT22;2497;47.410;9.740;2023-04-05T12:30:15;21.00;99.90
4964;DHT22;2497;47.410;9.740;2023-04-05T12:32:46;20.60;99.90
4964;DHT22;2497;47.410;9.740;2023-04-05T12:35:16;19.50;99.90
4964;DHT22;2497;47.410;9.740;2023-04-05T12:37:43;19.20;99.90
4964;DHT22;2497;47.410;9.740;2023-04-05T12:40:12;19.40;99.90
4964;DHT22;2497;47.410;9.740;2023-04-05T12:42:40;19.00;99.90
4964;DHT22;2497;47.410;9.740;2023-04-05T12:45:11;19.80;99.90
4964;DHT22;2497;47.410;9.740;2023-04-05T12:47:57;20.80;99.90
4964;DHT22;2497;47.410;9.740;2023-04-05T12:50:26;19.40;99.90
4964;DHT22;2497;47.410;9.740;2023-04-05T12:52:55;18.60;99.90
4964;DHT22;2497;47.410;9.740;2023-04-05T12:55:24;19.50;99.90
4964;DHT22;2497;47.410;9.740;2023-04-05T12:57:52;20.20;99.90
4964;DHT22;2497;47.410;9.740;2023-04-05T13:00:24;19.70;99.90
4964;DHT22;2497;47.410;9.740;2023-04-05T13:02:54;20.70;99.90
4964;DHT22;2497;47.410;9.740;2023-04-05T13:05:27;22.30;99.90
4964;DHT22;2497;47.410;9.740;2023-04-05T13:07:57;22.20;99.90
4964;DHT22;2497;47.410;9.740;2023-04-05T13:10:25;22.20;99.90
4964;DHT22;2497;47.410;9.740;2023-04-05T13:12:52;22.60;99.90
4964;DHT22;2497;47.410;9.740;2023-04-05T13:15:20;21.30;99.90
4964;DHT22;2497;47.410;9.740;2023-04-05T13:17:47;19.00;99.90
4964;DHT22;2497;47.410;9.740;2023-04-05T13:20:18;16.60;99.90
4964;DHT22;2497;47.410;9.740;2023-04-05T13:22:52;17.70;99.90
4964;DHT22;2497;47.410;9.740;2023-04-05T13:25:24;18.20;99.90
4964;DHT22;2497;47.410;9.740;2023-04-05T13:27:51;18.40;99.90
4964;DHT22;2497;47.410;9.740;2023-04-05T13:30:19;18.70;99.90
4964;DHT22;2497;47.410;9.740;2023-04-05T13:32:46;19.10;99.90
4964;DHT22;2497;47.410;9.740;2023-04-05T13:35:14;19.20;99.90
4964;DHT22;2497;47.410;9.740;2023-04-05T13:37:41;19.60;99.90
4964;DHT22;2497;47.410;9.740;2023-04-05T13:40:10;18.50;99.90
4964;DHT22;2497;47.410;9.740;2023-04-05T13:42:40;17.90;99.90
4964;DHT22;2497;47.410;9.740;2023-04-05T13:45:10;18.50;99.90
4964;DHT22;2497;47.410;9.740;2023-04-05T13:47:42;18.90;99.90
4964;DHT22;2497;47.410;9.740;2023-04-05T13:50:20;19.40;99.90
4964;DHT22;2497;47.410;9.740;2023-04-05T13:52:51;19.10;99.90
4964;DHT22;2497;47.410;9.740;2023-04-05T13:55:27;19.10;99.90
4964;DHT22;2497;47.410;9.740;2023-04-05T13:57:54;20.00;99.90
4964;DHT22;2497;47.410;9.740;2023-04-05T14:00:21;19.20;99.90
4964;DHT22;2497;47.410;9.740;2023-04-05T14:02:53;18.20;99.90
4964;DHT22;2497;47.410;9.740;2023-04-05T14:05:20;17.90;99.90
4964;DHT22;2497;47.410;9.740;2023-04-05T14:07:48;17.50;99.90
4964;DHT22;2497;47.410;9.740;2023-04-05T14:10:17;17.80;99.90
4964;DHT22;2497;47.410;9.740;2023-04-05T14:12:47;17.60;99.90
4964;DHT22;2497;47.410;9.740;2023-04-05T14:15:14;18.30;99.90
4964;DHT22;2497;47.410;9.740;2023-04-05T14:17:42;19.20;99.90
4964;DHT22;2497;47.410;9.740;2023-04-05T14:20:10;19.40;99.90
4964;DHT22;2497;47.410;9.740;2023-04-05T14:22:38;18.60;99.90
4964;DHT22;2497;47.410;9.740;2023-04-05T14:25:06;19.00;99.90
4964;DHT22;2497;47.410;9.740;2023-04-05T14:27:33;19.00;99.90
4964;DHT22;2497;47.410;9.740;2023-04-05T14:30:08;18.20;99.90
4964;DHT22;2497;47.410;9.740;2023-04-05T14:32:37;18.20;99.90
4964;DHT22;2497;47.410;9.740;2023-04-05T14:35:05;17.70;99.90
4964;DHT22;2497;47.410;9.740;2023-04-05T14:37:41;17.90;99.90
4964;DHT22;2497;47.410;9.740;2023-04-05T14:40:15;16.80;99.90
4964;DHT22;2497;47.410;9.740;2023-04-05T14:42:43;15.70;99.90
4964;DHT22;2497;47.410;9.740;2023-04-05T14:45:12;15.20;99.90
4964;DHT22;2497;47.410;9.740;2023-04-05T14:47:39;15.00;99.90
4964;DHT22;2497;47.410;9.740;2023-04-05T14:50:07;14.30;99.90
4964;DHT22;2497;47.410;9.740;2023-04-05T14:52:34;13.80;99.90
4964;DHT22;2497;47.410;9.740;2023-04-05T14:55:02;13.80;99.90
4964;DHT22;2497;47.410;9.740;2023-04-05T14:57:29;14.30;99.90
4964;DHT22;2497;47.410;9.740;2023-04-05T14:59:56;14.60;99.90
4964;DHT22;2497;47.410;9.740;2023-04-05T15:02:26;14.40;99.90
4964;DHT22;2497;47.410;9.740;2023-04-05T15:04:53;14.80;99.90
4964;DHT22;2497;47.410;9.740;2023-04-05T15:07:25;14.60;99.90
4964;DHT22;2497;47.410;9.740;2023-04-05T15:09:52;14.40;99.90
4964;DHT22;2497;47.410;9.740;2023-04-05T15:12:19;14.60;99.90
4964;DHT22;2497;47.410;9.740;2023-04-05T15:14:46;14.80;99.90
4964;DHT22;2497;47.410;9.740;2023-04-05T15:17:15;15.00;99.90
4964;DHT22;2497;47.410;9.740;2023-04-05T15:19:44;15.00;99.90
4964;DHT22;2497;47.410;9.740;2023-04-05T15:22:11;15.30;99.90
4964;DHT22;2497;47.410;9.740;2023-04-05T15:24:40;16.60;99.90
4964;DHT22;2497;47.410;9.740;2023-04-05T15:27:07;17.30;99.90
4964;DHT22;2497;47.410;9.740;2023-04-05T15:29:34;17.50;99.90
4964;DHT22;2497;47.410;9.740;2023-04-05T15:32:15;16.10;99.90
4964;DHT22;2497;47.410;9.740;2023-04-05T15:34:45;15.30;99.90
4964;DHT22;2497;47.410;9.740;2023-04-05T15:37:12;15.40;99.90
4964;DHT22;2497;47.410;9.740;2023-04-05T15:39:40;16.40;99.90
4964;DHT22;2497;47.410;9.740;2023-04-05T15:42:07;16.90;99.90
4964;DHT22;2497;47.410;9.740;2023-04-05T15:44:34;17.80;99.90
4964;DHT22;2497;47.410;9.740;2023-04-05T15:47:05;17.80;99.90
4964;DHT22;2497;47.410;9.740;2023-04-05T15:49:32;16.90;99.90
4964;DHT22;2497;47.410;9.740;2023-04-05T15:52:01;16.40;99.90
4964;DHT22;2497;47.410;9.740;2023-04-05T15:54:39;15.60;99.90
4964;DHT22;2497;47.410;9.740;2023-04-05T15:57:06;15.20;99.90
4964;DHT22;2497;47.410;9.740;2023-04-05T15:59:33;15.20;99.90
4964;DHT22;2497;47.410;9.740;2023-04-05T16:02:11;15.00;99.90
4964;DHT22;2497;47.410;9.740;2023-04-05T16:04:38;15.00;99.90
4964;DHT22;2497;47.410;9.740;2023-04-05T16:07:08;16.30;99.90
4964;DHT22;2497;47.410;9.740;2023-04-05T16:09:35;16.70;99.90
4964;DHT22;2497;47.410;9.740;2023-04-05T16:12:03;16.60;99.90
4964;DHT22;2497;47.410;9.740;2023-04-05T16:14:30;16.80;99.90
4964;DHT22;2497;47.410;9.740;2023-04-05T16:16:57;16.50;99.90
4964;DHT22;2497;47.410;9.740;2023-04-05T16:19:24;15.30;99.90
4964;DHT22;2497;47.410;9.740;2023-04-05T16:21:52;15.70;99.90
4964;DHT22;2497;47.410;9.740;2023-04-05T16:24:20;16.70;99.90
4964;DHT22;2497;47.410;9.740;2023-04-05T16:26:47;16.70;99.90